Cambridge Bay, Canada
Current Conditions -  °F | °C
As of 7:00 PM on Saturday 25 Oct 2014 (Local Time) from CYCB Reporting Station
Light Snow Light Snow  
Wind Chill:   Ceiling: 1500
Heat Index: 19°   Visibility: 8mi
Dew Point: 18°   Wind: 18mph
Humidity: 93%   Direction: 220°SW
Pressure: 29.76"   Gusts: NA
Location:  69.12°N, 105.03°W
Report Text: CYCB 260100Z 22016KT 8SM -SN DRSN OVC015 M07/M08 A2976 RMK SC8CIG RAG SLP082
Loading
Personal Weather Stations






























Interactive Weather Map
Tropical Storm Tracking
New forecast layout! Learn more

10-Day Weather Forecast

Advertisements
Track Severe Weather on mobile